sensor_id;sensor_type;location;lat;lon;timestamp;pressure;altitude;pressure_sealevel;temperature;humidity
64095;BME280;50353;51.420;5.682;2023-04-10T00:01:40;101852.56;;;11.72;60.95
64095;BME280;50353;51.420;5.682;2023-04-10T00:04:05;101848.25;;;11.13;63.12
64095;BME280;50353;51.420;5.682;2023-04-10T00:06:31;101849.97;;;11.33;61.58
64095;BME280;50353;51.420;5.682;2023-04-10T00:08:57;101843.53;;;11.39;61.73
64095;BME280;50353;51.420;5.682;2023-04-10T00:11:23;101843.84;;;11.14;62.27
64095;BME280;50353;51.420;5.682;2023-04-10T00:13:49;101835.66;;;11.38;62.08
64095;BME280;50353;51.420;5.682;2023-04-10T00:16:14;101829.22;;;11.24;62.28
64095;BME280;50353;51.420;5.682;2023-04-10T00:18:39;101823.09;;;10.86;63.44
64095;BME280;50353;51.420;5.682;2023-04-10T00:21:05;101814.50;;;10.41;65.60
64095;BME280;50353;51.420;5.682;2023-04-10T00:23:30;101816.03;;;10.65;64.18
64095;BME280;50353;51.420;5.682;2023-04-10T00:25:56;101808.56;;;10.94;64.52
64095;BME280;50353;51.420;5.682;2023-04-10T00:28:22;101805.16;;;10.92;63.77
64095;BME280;50353;51.420;5.682;2023-04-10T00:30:47;101803.66;;;11.06;63.25
64095;BME280;50353;51.420;5.682;2023-04-10T00:33:12;101795.13;;;10.99;63.14
64095;BME280;50353;51.420;5.682;2023-04-10T00:35:38;101794.84;;;10.86;63.65
64095;BME280;50353;51.420;5.682;2023-04-10T00:38:03;101794.25;;;10.79;63.94
64095;BME280;50353;51.420;5.682;2023-04-10T00:40:29;101792.13;;;10.48;65.68
64095;BME280;50353;51.420;5.682;2023-04-10T00:42:54;101790.44;;;10.66;65.38
64095;BME280;50353;51.420;5.682;2023-04-10T00:45:19;101787.81;;;10.66;64.83
64095;BME280;50353;51.420;5.682;2023-04-10T00:47:45;101780.22;;;10.58;65.63
64095;BME280;50353;51.420;5.682;2023-04-10T00:50:10;101776.88;;;10.74;64.80
64095;BME280;50353;51.420;5.682;2023-04-10T00:52:36;101776.97;;;10.72;65.10
64095;BME280;50353;51.420;5.682;2023-04-10T00:55:02;101774.63;;;10.45;65.72
64095;BME280;50353;51.420;5.682;2023-04-10T00:57:28;101787.41;;;10.36;66.73
64095;BME280;50353;51.420;5.682;2023-04-10T00:59:53;101779.25;;;10.20;67.60
64095;BME280;50353;51.420;5.682;2023-04-10T01:02:19;101770.75;;;10.13;68.20
64095;BME280;50353;51.420;5.682;2023-04-10T01:04:44;101777.66;;;10.15;68.21
64095;BME280;50353;51.420;5.682;2023-04-10T01:07:34;101766.16;;;10.17;68.03
64095;BME280;50353;51.420;5.682;2023-04-10T01:10:16;101770.78;;;9.91;68.84
64095;BME280;50353;51.420;5.682;2023-04-10T01:12:53;101769.94;;;10.11;68.11
64095;BME280;50353;51.420;5.682;2023-04-10T01:15:26;101759.69;;;10.24;67.39
64095;BME280;50353;51.420;5.682;2023-04-10T01:18:00;101766.44;;;9.90;68.42
64095;BME280;50353;51.420;5.682;2023-04-10T01:20:31;101773.19;;;10.18;67.54
64095;BME280;50353;51.420;5.682;2023-04-10T01:26:05;101765.84;;;10.04;68.06
64095;BME280;50353;51.420;5.682;2023-04-10T01:31:07;101753.16;;;9.48;70.10
64095;BME280;50353;51.420;5.682;2023-04-10T01:33:41;101755.25;;;9.62;69.96
64095;BME280;50353;51.420;5.682;2023-04-10T01:36:11;101755.19;;;9.64;70.17
64095;BME280;50353;51.420;5.682;2023-04-10T01:38:42;101759.97;;;9.54;70.16
64095;BME280;50353;51.420;5.682;2023-04-10T01:41:08;101761.53;;;9.60;69.86
64095;BME280;50353;51.420;5.682;2023-04-10T01:43:33;101760.78;;;9.56;70.05
64095;BME280;50353;51.420;5.682;2023-04-10T01:46:01;101756.56;;;9.52;70.43
64095;BME280;50353;51.420;5.682;2023-04-10T01:48:28;101757.06;;;9.40;71.06
64095;BME280;50353;51.420;5.682;2023-04-10T01:50:54;101756.75;;;9.47;71.11
64095;BME280;50353;51.420;5.682;2023-04-10T01:53:20;101756.84;;;9.44;70.69
64095;BME280;50353;51.420;5.682;2023-04-10T01:55:47;101747.16;;;9.23;71.45
64095;BME280;50353;51.420;5.682;2023-04-10T01:58:14;101744.75;;;9.61;71.01
64095;BME280;50353;51.420;5.682;2023-04-10T02:00:41;101734.41;;;9.34;71.54
64095;BME280;50353;51.420;5.682;2023-04-10T02:03:07;101743.50;;;9.49;71.31
64095;BME280;50353;51.420;5.682;2023-04-10T02:05:45;101735.44;;;9.52;71.40
64095;BME280;50353;51.420;5.682;2023-04-10T02:08:43;101732.75;;;9.32;71.91
64095;BME280;50353;51.420;5.682;2023-04-10T02:11:54;101725.22;;;9.22;71.14
64095;BME280;50353;51.420;5.682;2023-04-10T02:14:22;101728.81;;;9.42;70.30
64095;BME280;50353;51.420;5.682;2023-04-10T02:16:51;101725.63;;;9.56;69.47
64095;BME280;50353;51.420;5.682;2023-04-10T02:19:18;101721.81;;;9.19;70.76
64095;BME280;50353;51.420;5.682;2023-04-10T02:21:45;101711.31;;;9.39;70.61
64095;BME280;50353;51.420;5.682;2023-04-10T02:24:12;101710.19;;;9.24;71.15
64095;BME280;50353;51.420;5.682;2023-04-10T02:26:44;101697.44;;;9.13;71.56
64095;BME280;50353;51.420;5.682;2023-04-10T02:29:10;101700.72;;;9.41;69.96
64095;BME280;50353;51.420;5.682;2023-04-10T02:31:36;101700.72;;;9.41;70.24
64095;BME280;50353;51.420;5.682;2023-04-10T02:34:02;101696.50;;;9.14;70.05
64095;BME280;50353;51.420;5.682;2023-04-10T02:36:27;101700.94;;;9.14;70.77
64095;BME280;50353;51.420;5.682;2023-04-10T02:38:52;101692.19;;;8.90;71.41
64095;BME280;50353;51.420;5.682;2023-04-10T02:41:17;101698.97;;;9.19;70.35
64095;BME280;50353;51.420;5.682;2023-04-10T02:43:43;101693.78;;;9.38;69.21
64095;BME280;50353;51.420;5.682;2023-04-10T02:46:08;101691.03;;;9.62;68.82
64095;BME280;50353;51.420;5.682;2023-04-10T02:48:33;101690.66;;;9.71;66.72
64095;BME280;50353;51.420;5.682;2023-04-10T02:50:58;101687.47;;;9.63;67.17
64095;BME280;50353;51.420;5.682;2023-04-10T02:53:24;101690.09;;;9.42;68.34
64095;BME280;50353;51.420;5.682;2023-04-10T02:55:51;101695.22;;;9.25;68.47
64095;BME280;50353;51.420;5.682;2023-04-10T02:58:17;101691.75;;;9.45;67.55
64095;BME280;50353;51.420;5.682;2023-04-10T03:00:49;101689.31;;;9.61;66.57
64095;BME280;50353;51.420;5.682;2023-04-10T03:03:15;101686.25;;;9.29;68.41
64095;BME280;50353;51.420;5.682;2023-04-10T03:05:41;101688.91;;;9.50;68.55
64095;BME280;50353;51.420;5.682;2023-04-10T03:08:06;101677.53;;;9.27;69.19
64095;BME280;50353;51.420;5.682;2023-04-10T03:10:31;101687.44;;;9.22;69.02
64095;BME280;50353;51.420;5.682;2023-04-10T03:12:57;101683.72;;;9.05;69.95
64095;BME280;50353;51.420;5.682;2023-04-10T03:15:22;101678.47;;;8.82;70.89
64095;BME280;50353;51.420;5.682;2023-04-10T03:17:47;101681.16;;;8.80;70.74
64095;BME280;50353;51.420;5.682;2023-04-10T03:20:13;101686.28;;;9.07;70.65
64095;BME280;50353;51.420;5.682;2023-04-10T03:22:38;101685.41;;;8.84;70.32
64095;BME280;50353;51.420;5.682;2023-04-10T03:25:04;101691.56;;;9.07;69.51
64095;BME280;50353;51.420;5.682;2023-04-10T03:27:29;101694.03;;;9.32;68.60
64095;BME280;50353;51.420;5.682;2023-04-10T03:29:57;101694.53;;;9.20;68.88
64095;BME280;50353;51.420;5.682;2023-04-10T03:32:22;101689.16;;;9.01;69.40
64095;BME280;50353;51.420;5.682;2023-04-10T03:34:48;101690.38;;;8.92;69.71
64095;BME280;50353;51.420;5.682;2023-04-10T03:37:13;101691.34;;;8.89;69.54
64095;BME280;50353;51.420;5.682;2023-04-10T03:39:38;101682.63;;;8.87;70.38
64095;BME280;50353;51.420;5.682;2023-04-10T03:42:04;101684.41;;;8.87;69.64
64095;BME280;50353;51.420;5.682;2023-04-10T03:44:29;101682.47;;;9.14;68.83
64095;BME280;50353;51.420;5.682;2023-04-10T03:46:55;101675.34;;;8.94;69.15
64095;BME280;50353;51.420;5.682;2023-04-10T03:49:20;101669.38;;;8.89;69.40
64095;BME280;50353;51.420;5.682;2023-04-10T03:51:45;101672.22;;;8.84;69.58
64095;BME280;50353;51.420;5.682;2023-04-10T03:54:10;101667.38;;;8.73;70.52
64095;BME280;50353;51.420;5.682;2023-04-10T03:56:36;101665.00;;;8.89;69.08
64095;BME280;50353;51.420;5.682;2023-04-10T03:59:01;101660.75;;;8.85;69.74
64095;BME280;50353;51.420;5.682;2023-04-10T04:01:26;101655.84;;;8.76;69.84
64095;BME280;50353;51.420;5.682;2023-04-10T04:03:52;101657.00;;;8.91;69.43
64095;BME280;50353;51.420;5.682;2023-04-10T04:06:17;101659.25;;;8.78;69.67
64095;BME280;50353;51.420;5.682;2023-04-10T04:08:42;101662.50;;;8.62;70.41
64095;BME280;50353;51.420;5.682;2023-04-10T04:11:07;101651.63;;;8.72;69.61
64095;BME280;50353;51.420;5.682;2023-04-10T04:13:33;101650.38;;;8.80;69.57
64095;BME280;50353;51.420;5.682;2023-04-10T04:15:58;101646.94;;;8.56;69.98
64095;BME280;50353;51.420;5.682;2023-04-10T04:18:23;101647.44;;;8.66;69.80
64095;BME280;50353;51.420;5.682;2023-04-10T04:20:49;101644.88;;;8.65;70.49
64095;BME280;50353;51.420;5.682;2023-04-10T04:23:14;101645.03;;;8.60;70.10
64095;BME280;50353;51.420;5.682;2023-04-10T04:25:39;101640.50;;;8.86;69.42
64095;BME280;50353;51.420;5.682;2023-04-10T04:28:05;101641.38;;;9.08;68.06
64095;BME280;50353;51.420;5.682;2023-04-10T04:30:30;101640.63;;;9.05;68.87
64095;BME280;50353;51.420;5.682;2023-04-10T04:32:55;101629.91;;;9.09;67.89
64095;BME280;50353;51.420;5.682;2023-04-10T04:35:21;101633.84;;;8.99;68.99
64095;BME280;50353;51.420;5.682;2023-04-10T04:37:46;101633.97;;;8.96;68.62
64095;BME280;50353;51.420;5.682;2023-04-10T04:40:11;101636.91;;;8.66;69.97
64095;BME280;50353;51.420;5.682;2023-04-10T04:42:37;101631.69;;;8.87;69.15
64095;BME280;50353;51.420;5.682;2023-04-10T04:45:02;101631.44;;;8.71;69.53
64095;BME280;50353;51.420;5.682;2023-04-10T04:47:27;101633.78;;;8.56;70.17
64095;BME280;50353;51.420;5.682;2023-04-10T04:49:53;101640.19;;;8.49;69.99
64095;BME280;50353;51.420;5.682;2023-04-10T04:52:18;101642.09;;;8.45;70.41
64095;BME280;50353;51.420;5.682;2023-04-10T04:54:43;101629.72;;;8.70;70.03
64095;BME280;50353;51.420;5.682;2023-04-10T04:57:09;101634.56;;;8.80;69.26
64095;BME280;50353;51.420;5.682;2023-04-10T04:59:34;101642.72;;;8.74;70.46
64095;BME280;50353;51.420;5.682;2023-04-10T05:01:59;101639.25;;;8.96;68.31
64095;BME280;50353;51.420;5.682;2023-04-10T05:04:24;101633.75;;;8.33;70.54
64095;BME280;50353;51.420;5.682;2023-04-10T05:06:50;101628.31;;;8.37;71.25
64095;BME280;50353;51.420;5.682;2023-04-10T05:09:15;101618.00;;;8.31;71.11
64095;BME280;50353;51.420;5.682;2023-04-10T05:11:40;101620.47;;;8.82;69.48
64095;BME280;50353;51.420;5.682;2023-04-10T05:14:06;101617.59;;;8.42;70.84
64095;BME280;50353;51.420;5.682;2023-04-10T05:16:31;101615.69;;;8.69;69.78
64095;BME280;50353;51.420;5.682;2023-04-10T05:18:56;101607.72;;;8.49;70.40
64095;BME280;50353;51.420;5.682;2023-04-10T05:21:21;101612.22;;;8.45;70.92
64095;BME280;50353;51.420;5.682;2023-04-10T05:23:47;101600.59;;;8.51;71.25
64095;BME280;50353;51.420;5.682;2023-04-10T05:26:12;101604.28;;;8.91;69.21
64095;BME280;50353;51.420;5.682;2023-04-10T05:28:37;101604.69;;;9.02;68.58
64095;BME280;50353;51.420;5.682;2023-04-10T05:31:03;101601.94;;;8.83;70.18
64095;BME280;50353;51.420;5.682;2023-04-10T05:33:28;101594.69;;;9.31;68.20
64095;BME280;50353;51.420;5.682;2023-04-10T05:35:53;101603.63;;;9.28;69.01
64095;BME280;50353;51.420;5.682;2023-04-10T05:38:19;101602.03;;;9.24;68.08
64095;BME280;50353;51.420;5.682;2023-04-10T05:40:44;101604.66;;;8.82;69.93
64095;BME280;50353;51.420;5.682;2023-04-10T05:43:10;101606.28;;;9.27;68.71
64095;BME280;50353;51.420;5.682;2023-04-10T05:45:35;101605.59;;;9.01;70.73
64095;BME280;50353;51.420;5.682;2023-04-10T05:48:00;101595.88;;;9.24;68.74
64095;BME280;50353;51.420;5.682;2023-04-10T05:50:25;101601.28;;;9.62;67.98
64095;BME280;50353;51.420;5.682;2023-04-10T05:52:51;101595.06;;;10.03;67.18
64095;BME280;50353;51.420;5.682;2023-04-10T05:55:16;101598.44;;;9.87;66.95
64095;BME280;50353;51.420;5.682;2023-04-10T05:57:41;101593.44;;;10.00;66.45
64095;BME280;50353;51.420;5.682;2023-04-10T06:00:07;101594.78;;;9.90;67.08
64095;BME280;50353;51.420;5.682;2023-04-10T06:02:33;101590.44;;;9.89;67.75
64095;BME280;50353;51.420;5.682;2023-04-10T06:04:58;101598.72;;;10.00;66.76
64095;BME280;50353;51.420;5.682;2023-04-10T06:07:23;101598.94;;;10.14;65.82
64095;BME280;50353;51.420;5.682;2023-04-10T06:09:48;101595.81;;;10.06;67.40
64095;BME280;50353;51.420;5.682;2023-04-10T06:12:14;101599.13;;;9.91;67.49
64095;BME280;50353;51.420;5.682;2023-04-10T06:14:39;101607.38;;;10.04;68.19
64095;BME280;50353;51.420;5.682;2023-04-10T06:17:05;101608.06;;;10.07;65.99
64095;BME280;50353;51.420;5.682;2023-04-10T06:19:30;101610.38;;;10.34;66.02
64095;BME280;50353;51.420;5.682;2023-04-10T06:21:56;101604.22;;;10.14;66.25
64095;BME280;50353;51.420;5.682;2023-04-10T06:24:21;101601.94;;;10.26;66.20
64095;BME280;50353;51.420;5.682;2023-04-10T06:26:46;101605.50;;;10.25;66.04
64095;BME280;50353;51.420;5.682;2023-04-10T06:29:12;101600.66;;;10.35;66.19
64095;BME280;50353;51.420;5.682;2023-04-10T06:31:37;101595.84;;;10.44;65.80
64095;BME280;50353;51.420;5.682;2023-04-10T06:34:02;101599.97;;;10.50;65.11
64095;BME280;50353;51.420;5.682;2023-04-10T06:36:28;101592.22;;;10.64;67.22
64095;BME280;50353;51.420;5.682;2023-04-10T06:38:53;101590.81;;;10.57;65.54
64095;BME280;50353;51.420;5.682;2023-04-10T06:41:18;101578.22;;;10.99;64.64
64095;BME280;50353;51.420;5.682;2023-04-10T06:43:44;101574.84;;;11.30;62.70
64095;BME280;50353;51.420;5.682;2023-04-10T06:46:10;101582.47;;;11.37;61.16
64095;BME280;50353;51.420;5.682;2023-04-10T06:48:36;101580.31;;;11.10;62.68
64095;BME280;50353;51.420;5.682;2023-04-10T06:51:01;101565.75;;;11.19;61.25
64095;BME280;50353;51.420;5.682;2023-04-10T06:53:27;101562.25;;;11.01;62.28
64095;BME280;50353;51.420;5.682;2023-04-10T06:55:52;101554.75;;;11.44;61.12
64095;BME280;50353;51.420;5.682;2023-04-10T06:58:18;101552.34;;;11.39;61.77
64095;BME280;50353;51.420;5.682;2023-04-10T07:00:43;101549.69;;;11.39;62.00
64095;BME280;50353;51.420;5.682;2023-04-10T07:03:08;101546.75;;;11.28;62.34
64095;BME280;50353;51.420;5.682;2023-04-10T07:05:34;101544.56;;;10.83;64.23
64095;BME280;50353;51.420;5.682;2023-04-10T07:07:59;101536.16;;;11.28;61.76
64095;BME280;50353;51.420;5.682;2023-04-10T07:10:24;101537.56;;;11.18;62.00
64095;BME280;50353;51.420;5.682;2023-04-10T07:12:50;101525.13;;;11.20;63.13
64095;BME280;50353;51.420;5.682;2023-04-10T07:15:15;101523.56;;;11.33;61.00
64095;BME280;50353;51.420;5.682;2023-04-10T07:17:41;101518.06;;;11.54;61.97
64095;BME280;50353;51.420;5.682;2023-04-10T07:20:07;101513.34;;;11.25;61.65
64095;BME280;50353;51.420;5.682;2023-04-10T07:22:32;101511.44;;;11.78;60.51
64095;BME280;50353;51.420;5.682;2023-04-10T07:24:58;101507.31;;;11.06;63.16
64095;BME280;50353;51.420;5.682;2023-04-10T07:27:23;101501.94;;;11.74;60.90
64095;BME280;50353;51.420;5.682;2023-04-10T07:29:49;101501.44;;;11.83;59.62
64095;BME280;50353;51.420;5.682;2023-04-10T07:32:14;101505.94;;;12.15;58.96
64095;BME280;50353;51.420;5.682;2023-04-10T07:34:40;101503.78;;;12.06;60.34
64095;BME280;50353;51.420;5.682;2023-04-10T07:37:06;101502.25;;;12.02;59.49
64095;BME280;50353;51.420;5.682;2023-04-10T07:39:31;101499.31;;;12.06;58.26
64095;BME280;50353;51.420;5.682;2023-04-10T07:41:57;101496.31;;;12.28;59.29
64095;BME280;50353;51.420;5.682;2023-04-10T07:44:22;101495.22;;;12.00;59.82
64095;BME280;50353;51.420;5.682;2023-04-10T07:46:47;101494.91;;;12.07;59.70
64095;BME280;50353;51.420;5.682;2023-04-10T07:49:13;101487.00;;;12.05;60.32
64095;BME280;50353;51.420;5.682;2023-04-10T07:51:38;101479.63;;;12.42;58.99
64095;BME280;50353;51.420;5.682;2023-04-10T07:54:03;101482.00;;;12.77;56.99
64095;BME280;50353;51.420;5.682;2023-04-10T07:56:28;101478.13;;;12.22;58.88
64095;BME280;50353;51.420;5.682;2023-04-10T07:58:58;101458.22;;;12.61;56.86
64095;BME280;50353;51.420;5.682;2023-04-10T08:01:24;101463.50;;;13.06;56.41
64095;BME280;50353;51.420;5.682;2023-04-10T08:03:50;101456.78;;;12.70;56.97
64095;BME280;50353;51.420;5.682;2023-04-10T08:06:16;101454.72;;;12.75;56.25
64095;BME280;50353;51.420;5.682;2023-04-10T08:08:41;101452.22;;;13.60;55.04
64095;BME280;50353;51.420;5.682;2023-04-10T08:11:29;101456.91;;;14.26;55.04
64095;BME280;50353;51.420;5.682;2023-04-10T08:13:59;101447.16;;;13.84;53.45
64095;BME280;50353;51.420;5.682;2023-04-10T08:16:29;101435.78;;;14.50;52.71
64095;BME280;50353;51.420;5.682;2023-04-10T08:18:56;101437.94;;;14.17;53.13
64095;BME280;50353;51.420;5.682;2023-04-10T08:21:22;101432.03;;;14.80;53.07
64095;BME280;50353;51.420;5.682;2023-04-10T08:23:55;101431.72;;;14.84;52.13
64095;BME280;50353;51.420;5.682;2023-04-10T08:26:21;101429.63;;;15.02;51.40
64095;BME280;50353;51.420;5.682;2023-04-10T08:28:48;101437.13;;;14.02;54.67
64095;BME280;50353;51.420;5.682;2023-04-10T08:31:15;101428.50;;;14.26;55.08
64095;BME280;50353;51.420;5.682;2023-04-10T08:33:40;101433.31;;;14.07;53.68
64095;BME280;50353;51.420;5.682;2023-04-10T08:36:07;101436.44;;;14.13;53.07
64095;BME280;50353;51.420;5.682;2023-04-10T08:38:33;101437.47;;;14.38;53.07
64095;BME280;50353;51.420;5.682;2023-04-10T08:40:58;101434.47;;;13.75;55.73
64095;BME280;50353;51.420;5.682;2023-04-10T08:43:24;101428.00;;;14.07;54.93
64095;BME280;50353;51.420;5.682;2023-04-10T08:45:51;101434.22;;;13.93;53.78
64095;BME280;50353;51.420;5.682;2023-04-10T08:48:18;101435.88;;;14.08;53.31
64095;BME280;50353;51.420;5.682;2023-04-10T08:50:45;101432.56;;;13.77;55.67
64095;BME280;50353;51.420;5.682;2023-04-10T08:53:13;101428.41;;;13.73;55.63
64095;BME280;50353;51.420;5.682;2023-04-10T08:55:39;101420.28;;;14.16;54.90
64095;BME280;50353;51.420;5.682;2023-04-10T08:58:06;101411.84;;;14.37;54.18
64095;BME280;50353;51.420;5.682;2023-04-10T09:00:35;101408.94;;;14.67;55.27
64095;BME280;50353;51.420;5.682;2023-04-10T09:03:03;101422.44;;;13.55;56.99
64095;BME280;50353;51.420;5.682;2023-04-10T09:05:29;101417.28;;;14.08;56.59
64095;BME280;50353;51.420;5.682;2023-04-10T09:07:54;101423.09;;;14.00;55.40
64095;BME280;50353;51.420;5.682;2023-04-10T09:10:20;101409.56;;;13.91;57.38
64095;BME280;50353;51.420;5.682;2023-04-10T09:12:46;101415.25;;;14.39;55.24
64095;BME280;50353;51.420;5.682;2023-04-10T09:15:12;101408.41;;;14.35;54.81
64095;BME280;50353;51.420;5.682;2023-04-10T09:17:53;101409.91;;;14.26;55.75
64095;BME280;50353;51.420;5.682;2023-04-10T09:20:20;101400.66;;;14.32;56.26
64095;BME280;50353;51.420;5.682;2023-04-10T09:22:46;101396.59;;;14.26;56.95
64095;BME280;50353;51.420;5.682;2023-04-10T09:25:28;101398.97;;;14.44;55.58
64095;BME280;50353;51.420;5.682;2023-04-10T09:28:06;101398.94;;;14.31;57.13
64095;BME280;50353;51.420;5.682;2023-04-10T09:30:36;101393.59;;;14.18;57.52
64095;BME280;50353;51.420;5.682;2023-04-10T09:33:02;101394.50;;;14.44;57.42
64095;BME280;50353;51.420;5.682;2023-04-10T09:35:35;101386.47;;;14.84;56.42
64095;BME280;50353;51.420;5.682;2023-04-10T09:38:15;101383.69;;;15.12;56.13
64095;BME280;50353;51.420;5.682;2023-04-10T09:40:41;101377.16;;;14.51;56.52
64095;BME280;50353;51.420;5.682;2023-04-10T09:43:21;101372.19;;;15.11;54.69
64095;BME280;50353;51.420;5.682;2023-04-10T09:45:54;101361.56;;;14.85;54.67
64095;BME280;50353;51.420;5.682;2023-04-10T09:48:22;101353.59;;;14.73;56.51
64095;BME280;50353;51.420;5.682;2023-04-10T09:50:48;101349.19;;;14.84;56.41
64095;BME280;50353;51.420;5.682;2023-04-10T09:53:17;101343.66;;;14.62;57.19
64095;BME280;50353;51.420;5.682;2023-04-10T09:55:47;101324.19;;;15.00;57.30
64095;BME280;50353;51.420;5.682;2023-04-10T09:58:14;101326.22;;;14.58;57.17
64095;BME280;50353;51.420;5.682;2023-04-10T10:00:44;101320.16;;;15.31;55.24
64095;BME280;50353;51.420;5.682;2023-04-10T10:03:12;101321.75;;;15.34;54.88
64095;BME280;50353;51.420;5.682;2023-04-10T10:05:42;101317.69;;;15.04;55.51
64095;BME280;50353;51.420;5.682;2023-04-10T10:08:09;101317.22;;;15.10;55.11
64095;BME280;50353;51.420;5.682;2023-04-10T10:10:39;101310.09;;;15.11;55.79
64095;BME280;50353;51.420;5.682;2023-04-10T10:13:09;101316.22;;;15.24;54.35
64095;BME280;50353;51.420;5.682;2023-04-10T10:15:53;101322.34;;;15.00;55.41
64095;BME280;50353;51.420;5.682;2023-04-10T10:18:46;101318.63;;;15.03;54.18
64095;BME280;50353;51.420;5.682;2023-04-10T10:21:16;101318.56;;;14.92;54.74
64095;BME280;50353;51.420;5.682;2023-04-10T10:23:44;101312.13;;;14.94;56.31
64095;BME280;50353;51.420;5.682;2023-04-10T10:26:10;101311.00;;;15.23;54.93
64095;BME280;50353;51.420;5.682;2023-04-10T10:28:36;101304.66;;;15.12;54.12
64095;BME280;50353;51.420;5.682;2023-04-10T10:31:03;101288.41;;;15.28;55.37
64095;BME280;50353;51.420;5.682;2023-04-10T10:33:29;101289.69;;;15.23;55.34
64095;BME280;50353;51.420;5.682;2023-04-10T10:35:59;101273.09;;;15.67;54.49
64095;BME280;50353;51.420;5.682;2023-04-10T10:38:25;101276.41;;;16.07;53.33
64095;BME280;50353;51.420;5.682;2023-04-10T10:41:01;101272.16;;;15.93;54.11
64095;BME280;50353;51.420;5.682;2023-04-10T10:46:26;101262.78;;;16.68;52.37
64095;BME280;50353;51.420;5.682;2023-04-10T10:48:57;101262.28;;;16.97;51.77
64095;BME280;50353;51.420;5.682;2023-04-10T10:51:22;101267.28;;;17.45;49.81
64095;BME280;50353;51.420;5.682;2023-04-10T10:53:48;101254.13;;;17.10;51.47
64095;BME280;50353;51.420;5.682;2023-04-10T10:58:52;101254.47;;;17.16;49.28
64095;BME280;50353;51.420;5.682;2023-04-10T11:01:27;101249.78;;;16.86;49.09
64095;BME280;50353;51.420;5.682;2023-04-10T11:03:53;101246.16;;;16.76;50.21
64095;BME280;50353;51.420;5.682;2023-04-10T11:06:19;101243.34;;;16.20;51.27
64095;BME280;50353;51.420;5.682;2023-04-10T11:08:49;101239.00;;;16.31;51.04
64095;BME280;50353;51.420;5.682;2023-04-10T11:11:23;101229.03;;;17.01;51.38
64095;BME280;50353;51.420;5.682;2023-04-10T11:16:14;101222.13;;;17.31;48.28
64095;BME280;50353;51.420;5.682;2023-04-10T11:21:13;101206.38;;;16.50;49.94
64095;BME280;50353;51.420;5.682;2023-04-10T11:31:28;101196.19;;;17.21;50.61
64095;BME280;50353;51.420;5.682;2023-04-10T11:36:23;101187.66;;;17.60;47.27
64095;BME280;50353;51.420;5.682;2023-04-10T11:39:08;101181.72;;;17.99;47.98
64095;BME280;50353;51.420;5.682;2023-04-10T11:41:34;101184.31;;;17.68;48.88
64095;BME280;50353;51.420;5.682;2023-04-10T11:44:03;101183.00;;;17.62;47.93
64095;BME280;50353;51.420;5.682;2023-04-10T11:46:29;101167.00;;;17.30;47.35
64095;BME280;50353;51.420;5.682;2023-04-10T11:48:57;101166.22;;;17.39;47.34
64095;BME280;50353;51.420;5.682;2023-04-10T11:51:23;101173.38;;;17.17;48.88
64095;BME280;50353;51.420;5.682;2023-04-10T11:53:48;101167.69;;;17.64;48.33
64095;BME280;50353;51.420;5.682;2023-04-10T11:56:18;101167.09;;;17.61;45.50
64095;BME280;50353;51.420;5.682;2023-04-10T11:58:48;101150.63;;;16.90;47.81
64095;BME280;50353;51.420;5.682;2023-04-10T12:01:13;101165.13;;;17.42;47.31
64095;BME280;50353;51.420;5.682;2023-04-10T12:03:43;101155.81;;;17.36;48.44
64095;BME280;50353;51.420;5.682;2023-04-10T12:06:12;101154.38;;;17.53;46.94
64095;BME280;50353;51.420;5.682;2023-04-10T12:08:43;101152.38;;;17.13;47.81
64095;BME280;50353;51.420;5.682;2023-04-10T12:11:16;101154.31;;;17.43;48.00
64095;BME280;50353;51.420;5.682;2023-04-10T12:13:41;101142.44;;;17.78;47.03
64095;BME280;50353;51.420;5.682;2023-04-10T12:16:07;101138.34;;;17.53;48.56
64095;BME280;50353;51.420;5.682;2023-04-10T12:18:33;101134.19;;;17.91;47.92
64095;BME280;50353;51.420;5.682;2023-04-10T12:20:59;101128.53;;;18.05;47.44
64095;BME280;50353;51.420;5.682;2023-04-10T12:23:26;101119.00;;;18.22;46.57
64095;BME280;50353;51.420;5.682;2023-04-10T12:25:53;101123.38;;;18.23;47.44
64095;BME280;50353;51.420;5.682;2023-04-10T12:28:29;101118.06;;;17.71;47.35
64095;BME280;50353;51.420;5.682;2023-04-10T12:30:55;101122.03;;;17.56;48.83
64095;BME280;50353;51.420;5.682;2023-04-10T12:33:24;101109.41;;;18.20;45.76
64095;BME280;50353;51.420;5.682;2023-04-10T12:35:50;101113.97;;;17.98;46.40
64095;BME280;50353;51.420;5.682;2023-04-10T12:38:34;101098.72;;;17.89;46.92
64095;BME280;50353;51.420;5.682;2023-04-10T12:41:00;101106.31;;;18.15;47.54
64095;BME280;50353;51.420;5.682;2023-04-10T12:43:30;101092.66;;;18.18;47.26
64095;BME280;50353;51.420;5.682;2023-04-10T12:45:56;101109.50;;;18.39;46.61
64095;BME280;50353;51.420;5.682;2023-04-10T12:48:22;101095.00;;;18.42;45.35
64095;BME280;50353;51.420;5.682;2023-04-10T12:50:48;101096.72;;;18.63;44.99
64095;BME280;50353;51.420;5.682;2023-04-10T12:53:13;101084.59;;;18.58;45.28
64095;BME280;50353;51.420;5.682;2023-04-10T12:55:39;101082.31;;;18.54;45.04
64095;BME280;50353;51.420;5.682;2023-04-10T12:58:17;101079.59;;;18.24;45.15
64095;BME280;50353;51.420;5.682;2023-04-10T13:00:47;101077.72;;;18.15;45.32
64095;BME280;50353;51.420;5.682;2023-04-10T13:03:12;101072.16;;;18.38;45.91
64095;BME280;50353;51.420;5.682;2023-04-10T13:05:38;101070.34;;;17.98;46.63
64095;BME280;50353;51.420;5.682;2023-04-10T13:08:03;101066.09;;;17.95;46.69
64095;BME280;50353;51.420;5.682;2023-04-10T13:10:28;101068.47;;;17.57;47.76
64095;BME280;50353;51.420;5.682;2023-04-10T13:12:54;101058.81;;;17.97;47.67
64095;BME280;50353;51.420;5.682;2023-04-10T13:15:20;101058.38;;;17.71;45.61
64095;BME280;50353;51.420;5.682;2023-04-10T13:17:45;101054.50;;;17.85;45.93
64095;BME280;50353;51.420;5.682;2023-04-10T13:20:10;101044.66;;;17.54;47.18